createdAt,value
2023-11-18T00:00:01.768Z,9.10
2023-11-18T00:02:34.933Z,9.10
2023-11-18T00:05:02.135Z,9.10
2023-11-18T00:07:30.211Z,9.10
2023-11-18T00:09:57.748Z,9.10
2023-11-18T00:12:25.531Z,9.10
2023-11-18T00:14:52.379Z,9.10
2023-11-18T00:17:21.293Z,9.10
2023-11-18T00:19:48.602Z,9.10
2023-11-18T00:22:15.633Z,9.10
2023-11-18T00:24:42.819Z,9.10
2023-11-18T00:27:09.761Z,9.10
2023-11-18T00:29:36.694Z,9.10
2023-11-18T00:32:04.840Z,9.10
2023-11-18T00:34:31.795Z,9.10
2023-11-18T00:36:58.833Z,9.10
2023-11-18T00:39:26.319Z,9.00
2023-11-18T00:41:53.270Z,9.10
2023-11-18T00:44:20.395Z,9.10
2023-11-18T00:46:47.387Z,9.10
2023-11-18T00:49:14.467Z,9.10
2023-11-18T00:51:42.304Z,9.10
2023-11-18T00:54:10.758Z,9.10
2023-11-18T00:56:37.649Z,9.00
2023-11-18T00:59:04.568Z,9.00
2023-11-18T01:01:33.271Z,9.00
2023-11-18T01:04:00.465Z,9.00
2023-11-18T01:06:28.073Z,9.00
2023-11-18T01:08:54.993Z,9.00
2023-11-18T01:11:23.460Z,8.90
2023-11-18T01:13:51.017Z,8.90
2023-11-18T01:16:18.211Z,8.90
2023-11-18T01:18:45.522Z,8.90
2023-11-18T01:21:12.556Z,8.90
2023-11-18T01:23:40.024Z,8.90
2023-11-18T01:26:10.930Z,8.90
2023-11-18T01:28:38.851Z,8.90
2023-11-18T01:31:06.277Z,8.90
2023-11-18T01:33:33.766Z,8.90
2023-11-18T01:36:00.800Z,8.90
2023-11-18T01:38:27.755Z,8.90
2023-11-18T01:40:54.762Z,8.90
2023-11-18T01:43:23.339Z,8.90
2023-11-18T01:45:50.609Z,9.00
2023-11-18T01:48:18.438Z,9.00
2023-11-18T01:50:45.734Z,9.00
2023-11-18T01:53:12.680Z,9.00
2023-11-18T01:55:39.815Z,9.00
2023-11-18T01:58:10.980Z,9.00
2023-11-18T02:00:42.824Z,9.10
2023-11-18T02:03:10.710Z,9.00
2023-11-18T02:05:37.699Z,9.00
2023-11-18T02:08:10.607Z,9.00
2023-11-18T02:10:56.473Z,9.00
2023-11-18T02:13:32.559Z,9.10
2023-11-18T02:15:59.486Z,9.10
2023-11-18T02:18:27.397Z,9.10
2023-11-18T02:20:56.287Z,9.10
2023-11-18T02:23:23.257Z,9.20
2023-11-18T02:25:50.412Z,9.20
2023-11-18T02:28:17.633Z,9.20
2023-11-18T02:30:46.408Z,9.20
2023-11-18T02:33:21.248Z,9.20
2023-11-18T02:35:54.212Z,9.20
2023-11-18T02:38:24.217Z,9.20
2023-11-18T02:40:52.364Z,9.30
2023-11-18T02:43:19.238Z,9.30
2023-11-18T02:45:47.864Z,9.30
2023-11-18T02:48:16.242Z,9.30
2023-11-18T02:50:44.040Z,9.30
2023-11-18T02:53:10.997Z,9.40
2023-11-18T02:55:38.039Z,9.40
2023-11-18T02:58:06.969Z,9.40
2023-11-18T03:00:35.212Z,9.40
2023-11-18T03:03:04.100Z,9.40
2023-11-18T03:05:31.822Z,9.40
2023-11-18T03:07:59.692Z,9.50
2023-11-18T03:10:27.384Z,9.50
2023-11-18T03:12:54.903Z,9.50
2023-11-18T03:15:23.101Z,9.60
2023-11-18T03:17:51.301Z,9.60
2023-11-18T03:20:19.404Z,9.60
2023-11-18T03:22:49.256Z,9.60
2023-11-18T03:25:16.673Z,9.60
2023-11-18T03:27:44.168Z,9.60
2023-11-18T03:30:11.318Z,9.60
2023-11-18T03:32:39.617Z,9.60
2023-11-18T03:35:10.419Z,9.70
2023-11-18T03:37:42.829Z,9.70
2023-11-18T03:40:11.500Z,9.70
2023-11-18T03:42:39.012Z,9.70
2023-11-18T03:45:06.459Z,9.70
2023-11-18T03:47:35.010Z,9.80
2023-11-18T03:50:02.471Z,9.70
2023-11-18T03:52:30.308Z,9.80
2023-11-18T03:54:57.424Z,9.80
2023-11-18T03:57:24.303Z,9.80
2023-11-18T03:59:51.725Z,9.80
2023-11-18T04:02:18.730Z,9.90
2023-11-18T04:04:46.358Z,9.90
2023-11-18T04:07:13.257Z,9.90
2023-11-18T04:09:42.317Z,10.00
2023-11-18T04:12:10.815Z,10.00
2023-11-18T04:14:38.420Z,10.00
2023-11-18T04:17:05.448Z,10.10
2023-11-18T04:19:32.551Z,10.10
2023-11-18T04:21:59.957Z,10.10
2023-11-18T04:24:29.976Z,10.10
2023-11-18T04:26:56.830Z,10.10
2023-11-18T04:29:24.431Z,10.10
2023-11-18T04:31:51.900Z,10.20
2023-11-18T04:34:19.388Z,10.20
2023-11-18T04:36:46.264Z,10.20
2023-11-18T04:39:13.294Z,10.20
2023-11-18T04:41:40.948Z,10.20
2023-11-18T04:44:08.679Z,10.20
2023-11-18T04:46:39.236Z,10.30
2023-11-18T04:49:06.772Z,10.20
2023-11-18T04:51:34.382Z,10.30
2023-11-18T04:54:01.405Z,10.30
2023-11-18T04:56:28.226Z,10.30
2023-11-18T04:58:55.254Z,10.30
2023-11-18T05:01:22.340Z,10.30
2023-11-18T05:03:49.440Z,10.40
2023-11-18T05:06:16.478Z,10.40
2023-11-18T05:08:43.390Z,10.50
2023-11-18T05:11:10.302Z,10.50
2023-11-18T05:13:37.227Z,10.50
2023-11-18T05:16:05.023Z,10.50
2023-11-18T05:18:36.672Z,10.50
2023-11-18T05:21:06.441Z,10.60
2023-11-18T05:23:35.391Z,10.60
2023-11-18T05:26:02.610Z,10.60
2023-11-18T05:28:31.337Z,10.60
2023-11-18T05:30:59.486Z,10.60
2023-11-18T05:33:27.189Z,10.70
2023-11-18T05:35:54.729Z,10.70
2023-11-18T05:38:27.418Z,10.70
2023-11-18T05:40:58.030Z,10.70
2023-11-18T05:43:27.110Z,10.70
2023-11-18T05:46:16.958Z,10.80
2023-11-18T05:48:44.859Z,10.70
2023-11-18T05:51:12.350Z,10.80
2023-11-18T05:53:47.032Z,10.80
2023-11-18T05:56:14.706Z,10.80
2023-11-18T05:58:41.709Z,10.80
2023-11-18T06:01:09.103Z,10.90
2023-11-18T06:03:40.158Z,10.80
2023-11-18T06:06:12.651Z,10.90
2023-11-18T06:08:42.977Z,10.90
2023-11-18T06:11:14.233Z,10.90
2023-11-18T06:13:47.597Z,10.90
2023-11-18T06:16:18.349Z,10.90
2023-11-18T06:18:45.717Z,10.90
2023-11-18T06:21:16.303Z,10.90
2023-11-18T06:23:43.735Z,11.00
2023-11-18T06:26:14.167Z,11.00
2023-11-18T06:28:45.113Z,11.00
2023-11-18T06:31:14.056Z,11.00
2023-11-18T06:33:45.395Z,11.00
2023-11-18T06:36:15.359Z,11.00
2023-11-18T06:38:42.798Z,11.10
2023-11-18T06:41:12.110Z,11.10
2023-11-18T06:43:55.370Z,11.10
2023-11-18T06:46:23.288Z,11.10
2023-11-18T06:48:58.544Z,11.10
2023-11-18T06:51:26.475Z,11.10
2023-11-18T06:53:56.147Z,11.10
2023-11-18T06:56:26.373Z,11.20
2023-11-18T06:58:53.835Z,11.20
2023-11-18T07:01:20.798Z,11.20
2023-11-18T07:03:54.404Z,11.20
2023-11-18T07:06:27.692Z,11.20
2023-11-18T07:08:56.138Z,11.20
2023-11-18T07:11:23.206Z,11.20
2023-11-18T07:13:57.621Z,11.20
2023-11-18T07:16:25.912Z,11.20
2023-11-18T07:18:53.346Z,11.20
2023-11-18T07:21:20.662Z,11.30
2023-11-18T07:23:47.605Z,11.30
2023-11-18T07:26:17.306Z,11.30
2023-11-18T07:28:45.453Z,11.30
2023-11-18T07:31:13.254Z,11.30
2023-11-18T07:33:42.677Z,11.30
2023-11-18T07:36:12.682Z,11.30
2023-11-18T07:38:40.753Z,11.40
2023-11-18T07:41:09.513Z,11.40
2023-11-18T07:43:41.688Z,11.40
2023-11-18T07:46:09.301Z,11.40
2023-11-18T07:48:36.581Z,11.50
2023-11-18T07:51:04.711Z,11.50
2023-11-18T07:53:31.568Z,11.50
2023-11-18T07:55:58.481Z,11.50
2023-11-18T07:58:25.564Z,11.50
2023-11-18T08:00:52.460Z,11.60
2023-11-18T08:03:19.448Z,11.60
2023-11-18T08:05:46.758Z,11.70
2023-11-18T08:08:14.643Z,11.70
2023-11-18T08:10:42.177Z,11.80
2023-11-18T08:13:09.624Z,11.70
2023-11-18T08:15:40.732Z,11.80
2023-11-18T08:18:08.398Z,11.80
2023-11-18T08:20:35.303Z,11.90
2023-11-18T08:23:02.279Z,11.90
2023-11-18T08:25:29.186Z,11.90
2023-11-18T08:27:56.084Z,12.00
2023-11-18T08:30:23.094Z,12.00
2023-11-18T08:32:50.015Z,12.00
2023-11-18T08:35:17.101Z,12.10
2023-11-18T08:37:44.921Z,12.10
2023-11-18T08:40:22.846Z,12.10
2023-11-18T08:42:53.127Z,12.20
2023-11-18T08:45:28.654Z,12.20
2023-11-18T08:47:56.265Z,12.30
2023-11-18T08:50:27.185Z,12.30
2023-11-18T08:52:59.114Z,12.40
2023-11-18T08:55:48.248Z,12.40
2023-11-18T08:58:23.654Z,12.50
2023-11-18T09:00:55.834Z,12.50
2023-11-18T09:03:35.917Z,12.50
2023-11-18T09:06:05.378Z,12.50
2023-11-18T09:08:43.561Z,12.60
2023-11-18T09:11:12.067Z,12.60
2023-11-18T09:13:40.030Z,12.70
2023-11-18T09:16:10.700Z,12.70
2023-11-18T09:18:42.948Z,12.70
2023-11-18T09:21:16.358Z,12.70
2023-11-18T09:23:44.242Z,12.80
2023-11-18T09:26:11.742Z,12.80
2023-11-18T09:28:39.081Z,12.80
2023-11-18T09:31:06.394Z,12.90
2023-11-18T09:33:34.215Z,12.90
2023-11-18T09:36:04.226Z,12.90
2023-11-18T09:38:31.809Z,12.90
2023-11-18T09:41:04.106Z,13.00
2023-11-18T09:43:49.746Z,13.00
2023-11-18T09:46:25.456Z,13.10
2023-11-18T09:49:03.039Z,13.10
2023-11-18T09:51:34.670Z,13.10
2023-11-18T09:54:02.454Z,13.20
2023-11-18T09:56:39.750Z,13.20
2023-11-18T09:59:17.261Z,13.30
2023-11-18T10:01:45.690Z,13.30
2023-11-18T10:04:12.718Z,13.30
2023-11-18T10:06:43.319Z,13.30
2023-11-18T10:09:20.993Z,13.40
2023-11-18T10:11:50.943Z,13.40
2023-11-18T10:14:18.192Z,13.50
2023-11-18T10:16:48.102Z,13.50
2023-11-18T10:19:15.535Z,13.50
2023-11-18T10:21:42.553Z,13.60
2023-11-18T10:24:15.541Z,13.60
2023-11-18T10:26:55.374Z,13.60
2023-11-18T10:29:22.339Z,13.70
2023-11-18T10:31:49.437Z,13.70
2023-11-18T10:34:19.611Z,13.70
2023-11-18T10:37:01.301Z,13.70
2023-11-18T10:39:36.233Z,13.80
2023-11-18T10:42:04.042Z,13.80
2023-11-18T10:44:31.009Z,13.80
2023-11-18T10:47:01.168Z,13.80
2023-11-18T10:49:28.984Z,13.90
2023-11-18T10:51:59.984Z,13.90
2023-11-18T10:54:28.152Z,13.90
2023-11-18T10:56:58.165Z,13.90
2023-11-18T10:59:26.437Z,13.90
2023-11-18T11:01:53.441Z,13.90
2023-11-18T11:04:23.184Z,14.00
2023-11-18T11:06:54.320Z,14.00
2023-11-18T11:09:25.817Z,14.00
2023-11-18T11:12:00.326Z,14.10
2023-11-18T11:14:36.635Z,14.10
2023-11-18T11:17:13.085Z,14.10
2023-11-18T11:20:12.207Z,14.20
2023-11-18T11:23:11.479Z,14.20
2023-11-18T11:25:45.116Z,14.30
2023-11-18T11:28:17.099Z,14.30
2023-11-18T11:30:47.186Z,14.30
2023-11-18T11:33:41.588Z,14.30
2023-11-18T11:36:12.858Z,14.30
2023-11-18T11:38:40.750Z,14.30
2023-11-18T11:41:09.712Z,14.30
2023-11-18T11:43:36.821Z,14.30
2023-11-18T11:46:12.185Z,14.40
2023-11-18T11:48:39.733Z,14.40
2023-11-18T11:51:27.607Z,14.40
2023-11-18T11:54:17.193Z,14.40
2023-11-18T11:56:44.886Z,14.40
2023-11-18T11:59:12.738Z,14.50
2023-11-18T12:01:40.049Z,14.50
2023-11-18T12:04:11.962Z,14.50
2023-11-18T12:06:43.112Z,14.50
2023-11-18T12:09:10.578Z,14.60
2023-11-18T12:11:40.819Z,14.50
2023-11-18T12:14:14.526Z,14.60
2023-11-18T12:17:11.822Z,14.50
2023-11-18T12:19:57.377Z,14.50
2023-11-18T12:22:36.027Z,14.50
2023-11-18T12:25:03.613Z,14.50
2023-11-18T12:27:44.690Z,14.50
2023-11-18T12:30:17.379Z,14.60
2023-11-18T12:33:02.428Z,14.60
2023-11-18T12:35:30.511Z,14.60
2023-11-18T12:38:35.633Z,14.60
2023-11-18T12:41:12.611Z,14.70
2023-11-18T12:43:53.760Z,14.70
2023-11-18T12:46:32.751Z,14.70
2023-11-18T12:49:02.316Z,14.70
2023-11-18T12:51:29.520Z,14.80
2023-11-18T12:53:56.520Z,14.80
2023-11-18T12:56:26.233Z,14.80
2023-11-18T12:58:53.871Z,14.80
2023-11-18T13:01:20.907Z,14.90
2023-11-18T13:03:48.533Z,14.90
2023-11-18T13:06:15.684Z,14.90
2023-11-18T13:08:42.841Z,14.90
2023-11-18T13:11:17.408Z,14.90
2023-11-18T13:13:44.763Z,14.90
2023-11-18T13:16:11.700Z,14.90
2023-11-18T13:18:50.991Z,14.90
2023-11-18T13:21:18.709Z,14.90
2023-11-18T13:23:53.672Z,14.90
2023-11-18T13:26:21.046Z,14.90
2023-11-18T13:28:49.231Z,14.90
2023-11-18T13:31:19.532Z,15.00
2023-11-18T13:33:52.116Z,14.90
2023-11-18T13:36:19.183Z,15.00
2023-11-18T13:38:49.204Z,15.00
2023-11-18T13:41:29.920Z,14.90
2023-11-18T13:43:57.765Z,14.90
2023-11-18T13:46:25.280Z,14.90
2023-11-18T13:48:53.331Z,14.90
2023-11-18T13:51:20.624Z,14.90
2023-11-18T13:53:47.792Z,14.90
2023-11-18T13:56:16.543Z,14.90
2023-11-18T13:58:44.289Z,14.90
2023-11-18T14:01:13.535Z,14.90
2023-11-18T14:03:41.453Z,14.90
2023-11-18T14:06:11.790Z,14.90
2023-11-18T14:08:39.972Z,14.90
2023-11-18T14:11:13.360Z,14.90
2023-11-18T14:13:43.349Z,14.90
2023-11-18T14:16:11.619Z,14.90
2023-11-18T14:18:38.752Z,14.80
2023-11-18T14:21:06.928Z,14.80
2023-11-18T14:23:33.838Z,14.80
2023-11-18T14:26:00.763Z,14.80
2023-11-18T14:28:28.842Z,14.80
2023-11-18T14:30:55.829Z,14.80
2023-11-18T14:33:22.910Z,14.80
2023-11-18T14:35:49.848Z,14.80
2023-11-18T14:38:16.940Z,14.80
2023-11-18T14:40:43.824Z,14.80
2023-11-18T14:43:10.840Z,14.80
2023-11-18T14:45:38.644Z,14.80
2023-11-18T14:48:06.280Z,14.70
2023-11-18T14:50:33.509Z,14.80
2023-11-18T14:53:01.304Z,14.80
2023-11-18T14:55:29.302Z,14.70
2023-11-18T14:57:59.259Z,14.70
2023-11-18T15:00:28.283Z,14.70
2023-11-18T15:03:00.331Z,14.70
2023-11-18T15:05:28.471Z,14.70
2023-11-18T15:07:56.224Z,14.70
2023-11-18T15:10:24.067Z,14.70
2023-11-18T15:12:56.022Z,14.70
2023-11-18T15:15:33.615Z,14.70
2023-11-18T15:18:05.070Z,14.60
2023-11-18T15:20:32.478Z,14.60
2023-11-18T15:22:59.889Z,14.60
2023-11-18T15:25:28.138Z,14.60
2023-11-18T15:27:57.198Z,14.60
2023-11-18T15:30:26.723Z,14.60
2023-11-18T15:32:53.837Z,14.60
2023-11-18T15:35:22.379Z,14.50
2023-11-18T15:37:49.669Z,14.50
2023-11-18T15:40:20.789Z,14.50
2023-11-18T15:42:52.554Z,14.40
2023-11-18T15:45:20.845Z,14.40
2023-11-18T15:47:49.458Z,14.40
2023-11-18T15:50:17.825Z,14.40
2023-11-18T15:52:45.545Z,14.30
2023-11-18T15:55:14.825Z,14.30
2023-11-18T15:57:48.787Z,14.30
2023-11-18T16:00:17.614Z,14.30
2023-11-18T16:02:46.175Z,14.30
2023-11-18T16:05:16.945Z,14.30
2023-11-18T16:07:46.930Z,14.20
2023-11-18T16:10:22.650Z,14.20
2023-11-18T16:12:56.595Z,14.20
2023-11-18T16:15:24.309Z,14.20
2023-11-18T16:17:51.615Z,14.10
2023-11-18T16:20:19.890Z,14.10
2023-11-18T16:22:48.610Z,14.10
2023-11-18T16:25:21.018Z,14.10
2023-11-18T16:27:48.668Z,14.10
2023-11-18T16:30:15.830Z,14.10
2023-11-18T16:32:45.100Z,14.10
2023-11-18T16:35:13.461Z,14.10
2023-11-18T16:37:40.762Z,14.10
2023-11-18T16:40:11.164Z,14.00
2023-11-18T16:42:38.131Z,14.10
2023-11-18T16:45:05.598Z,14.10
2023-11-18T16:47:32.670Z,14.10
2023-11-18T16:50:03.703Z,14.10
2023-11-18T16:52:31.991Z,14.10
2023-11-18T16:54:58.931Z,14.10
2023-11-18T16:57:27.089Z,14.10
2023-11-18T16:59:56.392Z,14.10
2023-11-18T17:02:23.558Z,14.10
2023-11-18T17:04:50.617Z,14.10
2023-11-18T17:07:18.054Z,14.10
2023-11-18T17:09:46.705Z,14.10
2023-11-18T17:12:13.654Z,14.10
2023-11-18T17:14:40.696Z,14.10
2023-11-18T17:17:09.385Z,14.10
2023-11-18T17:19:37.363Z,14.10
2023-11-18T17:22:05.873Z,14.20
2023-11-18T17:24:33.021Z,14.20
2023-11-18T17:27:01.755Z,14.10
2023-11-18T17:29:28.726Z,14.10
2023-11-18T17:31:57.551Z,14.20
2023-11-18T17:34:24.555Z,14.10
2023-11-18T17:36:54.393Z,14.10
2023-11-18T17:39:21.514Z,14.10
2023-11-18T17:41:48.507Z,14.10
2023-11-18T17:44:17.693Z,14.10
2023-11-18T17:46:44.661Z,14.10
2023-11-18T17:49:11.656Z,14.10
2023-11-18T17:51:38.592Z,14.10
2023-11-18T17:54:05.788Z,14.10
2023-11-18T17:56:33.125Z,14.10
2023-11-18T17:59:00.287Z,14.10
2023-11-18T18:01:27.304Z,14.10
2023-11-18T18:03:54.357Z,14.10
2023-11-18T18:06:21.405Z,14.10
2023-11-18T18:08:48.305Z,14.10
2023-11-18T18:11:15.536Z,14.10
2023-11-18T18:13:42.548Z,14.10
2023-11-18T18:16:09.733Z,14.10
2023-11-18T18:18:36.689Z,14.10
2023-11-18T18:21:03.943Z,14.00
2023-11-18T18:23:32.504Z,14.10
2023-11-18T18:26:00.280Z,14.10
2023-11-18T18:28:27.652Z,14.10
2023-11-18T18:30:55.166Z,14.10
2023-11-18T18:33:22.760Z,14.10
2023-11-18T18:35:49.869Z,14.10
2023-11-18T18:38:16.832Z,14.10
2023-11-18T18:40:43.969Z,14.00
2023-11-18T18:43:11.752Z,14.00
2023-11-18T18:45:39.247Z,14.00
2023-11-18T18:48:06.461Z,14.00
2023-11-18T18:50:38.587Z,14.00
2023-11-18T18:53:08.384Z,14.00
2023-11-18T18:55:37.173Z,14.00
2023-11-18T18:58:05.077Z,14.00
2023-11-18T19:00:32.054Z,14.00
2023-11-18T19:02:59.146Z,14.00
2023-11-18T19:05:26.234Z,14.00
2023-11-18T19:07:56.828Z,14.10
2023-11-18T19:10:24.322Z,14.00
2023-11-18T19:12:51.354Z,14.00
2023-11-18T19:15:18.355Z,14.00
2023-11-18T19:17:45.880Z,14.10
2023-11-18T19:20:15.697Z,14.00
2023-11-18T19:22:43.573Z,14.10
2023-11-18T19:25:11.869Z,14.00
2023-11-18T19:27:44.083Z,14.00
2023-11-18T19:30:13.633Z,14.00
2023-11-18T19:32:41.543Z,14.00
2023-11-18T19:35:08.812Z,14.00
2023-11-18T19:37:36.019Z,14.10
2023-11-18T19:40:07.043Z,14.10
2023-11-18T19:42:34.504Z,14.00
2023-11-18T19:45:01.422Z,14.00
2023-11-18T19:47:30.611Z,14.10
2023-11-18T19:49:58.863Z,14.10
2023-11-18T19:52:25.864Z,14.10
2023-11-18T19:54:52.973Z,14.10
2023-11-18T19:57:20.163Z,14.10
2023-11-18T19:59:47.184Z,14.10
2023-11-18T20:02:14.501Z,14.10
2023-11-18T20:04:43.036Z,14.10
2023-11-18T20:07:10.706Z,14.00
2023-11-18T20:09:37.635Z,14.00
2023-11-18T20:12:05.706Z,14.00
2023-11-18T20:14:34.356Z,14.00
2023-11-18T20:17:01.680Z,14.00
2023-11-18T20:19:33.739Z,14.00
2023-11-18T20:22:01.602Z,14.00
2023-11-18T20:24:29.642Z,14.00
2023-11-18T20:26:56.661Z,14.00
2023-11-18T20:29:23.548Z,14.00
2023-11-18T20:31:50.479Z,14.00
2023-11-18T20:34:17.392Z,14.00
2023-11-18T20:36:45.120Z,13.90
2023-11-18T20:39:18.266Z,13.90
2023-11-18T20:41:47.939Z,13.90
2023-11-18T20:44:15.472Z,13.90
2023-11-18T20:46:42.478Z,13.80
2023-11-18T20:49:09.404Z,13.80
2023-11-18T20:51:37.187Z,13.80
2023-11-18T20:54:05.779Z,13.80
2023-11-18T20:56:32.755Z,13.70
2023-11-18T20:59:00.019Z,13.70
2023-11-18T21:01:27.096Z,13.70
2023-11-18T21:03:54.173Z,13.70
2023-11-18T21:06:21.943Z,13.80
2023-11-18T21:08:49.438Z,13.80
2023-11-18T21:11:16.345Z,13.80
2023-11-18T21:13:43.746Z,13.80
2023-11-18T21:16:10.750Z,13.80
2023-11-18T21:18:38.209Z,13.80
2023-11-18T21:21:06.008Z,13.70
2023-11-18T21:23:32.958Z,13.70
2023-11-18T21:25:59.941Z,13.70
2023-11-18T21:28:27.198Z,13.70
2023-11-18T21:30:54.669Z,13.70
2023-11-18T21:33:22.611Z,13.70
2023-11-18T21:35:49.736Z,13.70
2023-11-18T21:38:16.697Z,13.70
2023-11-18T21:40:43.577Z,13.70
2023-11-18T21:43:10.706Z,13.70
2023-11-18T21:45:38.792Z,13.60
2023-11-18T21:48:07.785Z,13.60
2023-11-18T21:50:35.104Z,13.50
2023-11-18T21:53:03.822Z,13.50
2023-11-18T21:55:30.980Z,13.50
2023-11-18T21:57:57.970Z,13.40
2023-11-18T22:00:25.456Z,13.40
2023-11-18T22:02:53.366Z,13.40
2023-11-18T22:05:20.794Z,13.30
2023-11-18T22:07:48.087Z,13.30
2023-11-18T22:10:18.862Z,13.30
2023-11-18T22:12:46.195Z,13.20
2023-11-18T22:15:17.430Z,13.20
2023-11-18T22:17:45.156Z,13.20
2023-11-18T22:20:14.725Z,13.10
2023-11-18T22:22:42.153Z,13.10
2023-11-18T22:25:09.902Z,13.10
2023-11-18T22:27:41.274Z,13.10
2023-11-18T22:30:09.493Z,13.00
2023-11-18T22:32:39.038Z,13.00
2023-11-18T22:35:08.319Z,13.00
2023-11-18T22:37:36.000Z,12.90
2023-11-18T22:40:11.428Z,12.90
2023-11-18T22:42:40.579Z,12.90
2023-11-18T22:45:17.168Z,12.90
2023-11-18T22:47:51.317Z,12.90
2023-11-18T22:50:18.987Z,12.80
2023-11-18T22:52:46.162Z,12.80
2023-11-18T22:55:16.618Z,12.80
2023-11-18T22:57:45.855Z,12.70
2023-11-18T23:00:33.270Z,12.70
2023-11-18T23:03:00.525Z,12.70
2023-11-18T23:05:27.562Z,12.70
2023-11-18T23:07:57.781Z,12.70
2023-11-18T23:10:28.140Z,12.70
2023-11-18T23:12:56.208Z,12.60
2023-11-18T23:15:25.441Z,12.60
2023-11-18T23:17:52.703Z,12.60
2023-11-18T23:20:20.478Z,12.60
2023-11-18T23:22:48.473Z,12.50
2023-11-18T23:25:15.436Z,12.50
2023-11-18T23:27:42.446Z,12.50
2023-11-18T23:30:13.342Z,12.50
2023-11-18T23:32:40.957Z,12.40
2023-11-18T23:35:10.459Z,12.40
2023-11-18T23:37:37.379Z,12.40
2023-11-18T23:40:11.038Z,12.40
2023-11-18T23:42:40.900Z,12.40
2023-11-18T23:45:08.520Z,12.40
2023-11-18T23:47:35.902Z,12.40
2023-11-18T23:50:02.916Z,12.40
2023-11-18T23:52:30.812Z,12.40
2023-11-18T23:54:57.874Z,12.40
2023-11-18T23:57:24.949Z,12.40
2023-11-18T23:59:52.381Z,12.40
